Norfolk Downs, Massachusetts
Current Conditions -  °F | °C
As of 7:10 AM on Friday 28 Nov 2014 (Local Time) from KBOS Reporting Station
Light Snow Light Snow  
Wind Chill: -8°   Ceiling: 3800
Heat Index: -2°   Visibility: 1.7mi
Dew Point: -3°   Wind: 12mph
Humidity: 93%   Direction: 320°NW
Pressure: 30.04"   Gusts: NA
Location:  42.2866°N, 71.0248°W
Report Text: KBOS 281210Z 32010KT 1 3/4SM -SN BR FEW010 OVC038 M02/M03 A3004 RMK AO2 P0000
Loading
Personal Weather Stations






























Interactive Weather Map New forecast layout! Learn more

10-Day Weather Forecast

Advertisements
Track Severe Weather on mobile